Time;durP1;ratioP1;P1;durP2;ratioP2;P2;SDS_P1;SDS_P2;PMS_P1;PMS_P2;Temp;Humidity;BMP_temperature;BMP_pressure;BME280_temperature;BME280_humidity;BME280_pressure;Samples;Min_cycle;Max_cycle;Signal;HPM_P1;HPM_P2
2023/02/20 00:00:29;;;;;;;13.10;4.90;;;;;;;;;;4978351;28;20054;-68
2023/02/20 00:02:54;;;;;;;15.98;6.32;;;;;;;;;;4978609;28;20381;-69
2023/02/20 00:05:20;;;;;;;14.98;6.95;;;;;;;;;;4979698;28;20106;-69
2023/02/20 00:07:45;;;;;;;12.85;5.90;;;;;;;;;;4973116;28;20374;-69
2023/02/20 00:10:11;;;;;;;21.42;7.53;;;;;;;;;;4973716;28;20018;-68
2023/02/20 00:12:36;;;;;;;19.83;8.18;;;;;;;;;;4969707;28;20022;-68
2023/02/20 00:15:01;;;;;;;37.65;11.43;;;;;;;;;;4973365;28;20062;-69
2023/02/20 00:17:28;;;;;;;32.88;11.13;;;;;;;;;;4973138;28;20074;-68
2023/02/20 00:19:53;;;;;;;19.65;8.02;;;;;;;;;;4977521;28;20054;-68
2023/02/20 00:22:20;;;;;;;19.67;7.13;;;;;;;;;;4977464;28;20019;-68
2023/02/20 00:24:45;;;;;;;14.40;6.45;;;;;;;;;;4955799;28;20026;-68
2023/02/20 00:27:11;;;;;;;9.98;4.55;;;;;;;;;;4973994;28;20498;-68
2023/02/20 00:29:36;;;;;;;13.77;4.28;;;;;;;;;;4969076;28;20036;-69
2023/02/20 00:32:02;;;;;;;10.95;4.63;;;;;;;;;;4969794;28;20046;-69
2023/02/20 00:34:27;;;;;;;10.05;4.30;;;;;;;;;;4976230;28;20117;-68
2023/02/20 00:36:52;;;;;;;9.15;3.83;;;;;;;;;;4979715;28;20026;-68
2023/02/20 00:39:17;;;;;;;11.52;3.88;;;;;;;;;;4971572;28;20030;-69
2023/02/20 00:41:43;;;;;;;11.77;5.10;;;;;;;;;;4980670;28;20030;-68
2023/02/20 00:44:08;;;;;;;8.73;4.20;;;;;;;;;;4969791;28;20029;-69
2023/02/20 00:46:33;;;;;;;11.48;4.35;;;;;;;;;;4980478;28;20033;-68
2023/02/20 00:48:58;;;;;;;14.20;4.43;;;;;;;;;;4974058;28;20023;-69
2023/02/20 00:51:24;;;;;;;12.30;5.47;;;;;;;;;;4976042;28;20019;-68
2023/02/20 00:53:49;;;;;;;18.85;5.85;;;;;;;;;;4975364;28;20305;-68
2023/02/20 00:56:14;;;;;;;17.13;5.57;;;;;;;;;;4978095;28;20054;-68
2023/02/20 00:58:39;;;;;;;11.82;5.65;;;;;;;;;;4972607;28;20790;-68
2023/02/20 01:01:05;;;;;;;14.50;6.05;;;;;;;;;;4961013;28;20019;-68
2023/02/20 01:03:30;;;;;;;12.30;5.60;;;;;;;;;;4977932;28;20165;-69
2023/02/20 01:05:55;;;;;;;13.95;5.43;;;;;;;;;;4979370;28;20025;-68
2023/02/20 01:08:21;;;;;;;12.25;5.70;;;;;;;;;;4971801;28;20025;-68
2023/02/20 01:10:46;;;;;;;19.70;5.43;;;;;;;;;;4978321;28;20041;-68
2023/02/20 01:13:11;;;;;;;15.53;6.10;;;;;;;;;;4972623;28;20032;-68
2023/02/20 01:15:36;;;;;;;14.75;5.85;;;;;;;;;;4980648;28;20348;-68
2023/02/20 01:18:01;;;;;;;15.73;5.40;;;;;;;;;;4973085;28;20023;-68
2023/02/20 01:20:26;;;;;;;18.65;6.82;;;;;;;;;;4978491;28;20755;-69
2023/02/20 01:22:52;;;;;;;17.77;6.32;;;;;;;;;;4974557;28;20066;-69
2023/02/20 01:25:17;;;;;;;13.63;6.85;;;;;;;;;;4976540;28;20117;-68
2023/02/20 01:27:42;;;;;;;18.52;7.82;;;;;;;;;;4976437;28;20022;-68
2023/02/20 01:30:08;;;;;;;19.27;6.70;;;;;;;;;;4974924;28;20051;-69
2023/02/20 01:32:33;;;;;;;14.20;6.35;;;;;;;;;;4975995;28;20945;-69
2023/02/20 01:34:58;;;;;;;17.73;7.53;;;;;;;;;;4975590;28;20292;-69
2023/02/20 01:37:23;;;;;;;18.38;7.40;;;;;;;;;;4972913;28;20038;-68
2023/02/20 01:39:49;;;;;;;15.13;7.25;;;;;;;;;;4979436;28;20030;-68
2023/02/20 01:42:24;;;;;;;18.05;7.50;;;;;;;;;;4974971;28;20027;-68
2023/02/20 01:44:49;;;;;;;21.70;8.27;;;;;;;;;;4981374;28;20556;-68
2023/02/20 01:47:15;;;;;;;21.73;8.10;;;;;;;;;;4977173;28;20042;-68
2023/02/20 01:49:53;;;;;;;19.23;8.80;;;;;;;;;;4982700;28;20022;-68
2023/02/20 01:52:24;;;;;;;18.55;8.40;;;;;;;;;;4976197;28;20061;-69
2023/02/20 01:54:56;;;;;;;22.65;8.82;;;;;;;;;;4979328;28;20030;-68
2023/02/20 01:57:23;;;;;;;22.00;9.07;;;;;;;;;;4977703;28;20526;-68
2023/02/20 01:59:49;;;;;;;28.00;9.55;;;;;;;;;;4982256;28;20033;-69
2023/02/20 02:02:14;;;;;;;21.40;9.73;;;;;;;;;;4978742;28;20038;-69
2023/02/20 02:04:40;;;;;;;26.20;11.02;;;;;;;;;;4984248;28;20019;-68
2023/02/20 02:07:05;;;;;;;23.35;10.10;;;;;;;;;;4978981;28;20745;-68
2023/02/20 02:09:34;;;;;;;22.80;8.60;;;;;;;;;;4983284;28;20479;-69
2023/02/20 02:11:59;;;;;;;26.67;9.80;;;;;;;;;;4975409;28;20019;-68
2023/02/20 02:14:25;;;;;;;19.00;6.72;;;;;;;;;;4979688;28;20019;-70
2023/02/20 02:17:08;;;;;;;23.58;8.70;;;;;;;;;;4979382;28;20057;-68
2023/02/20 02:19:36;;;;;;;19.58;8.90;;;;;;;;;;4980502;28;20038;-68
2023/02/20 02:22:14;;;;;;;23.40;10.35;;;;;;;;;;4975715;28;20526;-68
2023/02/20 02:24:43;;;;;;;20.98;8.57;;;;;;;;;;4976410;28;20068;-69
2023/02/20 02:27:16;;;;;;;18.08;7.07;;;;;;;;;;4974122;28;20019;-68
2023/02/20 02:29:41;;;;;;;10.35;5.00;;;;;;;;;;4976860;28;20045;-69
2023/02/20 02:32:25;;;;;;;23.83;7.90;;;;;;;;;;4975017;28;20027;-68
2023/02/20 02:34:56;;;;;;;17.38;8.25;;;;;;;;;;4976452;28;20027;-68
2023/02/20 02:37:28;;;;;;;20.38;7.50;;;;;;;;;;4976598;28;20114;-69
2023/02/20 02:40:11;;;;;;;23.45;9.63;;;;;;;;;;4980487;28;20588;-68
2023/02/20 02:42:41;;;;;;;19.20;8.63;;;;;;;;;;4977619;28;20033;-69
2023/02/20 02:45:16;;;;;;;19.83;8.68;;;;;;;;;;4976400;28;20018;-68
2023/02/20 02:47:47;;;;;;;23.83;9.98;;;;;;;;;;4976253;28;20026;-68
2023/02/20 02:50:12;;;;;;;25.02;10.30;;;;;;;;;;4979863;28;20069;-68
2023/02/20 02:52:47;;;;;;;24.63;10.30;;;;;;;;;;4980259;28;20022;-69
2023/02/20 02:55:21;;;;;;;29.65;10.52;;;;;;;;;;4978619;28;20034;-68
2023/02/20 02:57:46;;;;;;;20.98;7.00;;;;;;;;;;4973285;28;20038;-69
2023/02/20 03:00:21;;;;;;;23.55;9.27;;;;;;;;;;4974899;28;20061;-69
2023/02/20 03:02:56;;;;;;;29.65;8.95;;;;;;;;;;4973084;28;20085;-68
2023/02/20 03:05:24;;;;;;;23.65;8.68;;;;;;;;;;4981030;28;20131;-69
2023/02/20 03:07:52;;;;;;;21.13;8.80;;;;;;;;;;4974207;28;20014;-68
2023/02/20 03:10:30;;;;;;;19.75;8.57;;;;;;;;;;4979103;28;20023;-68
2023/02/20 03:12:57;;;;;;;21.35;8.57;;;;;;;;;;4976665;28;20719;-68
2023/02/20 03:15:35;;;;;;;21.92;9.00;;;;;;;;;;4978526;28;20027;-68
2023/02/20 03:18:00;;;;;;;22.40;8.95;;;;;;;;;;4979369;28;20042;-68
2023/02/20 03:20:25;;;;;;;21.13;9.17;;;;;;;;;;4980358;28;20019;-69
2023/02/20 03:22:58;;;;;;;23.85;9.52;;;;;;;;;;4980521;28;20654;-68
2023/02/20 03:25:23;;;;;;;18.77;8.25;;;;;;;;;;4980374;28;20122;-68
2023/02/20 03:27:52;;;;;;;22.57;7.77;;;;;;;;;;4974191;28;20543;-68
2023/02/20 03:30:23;;;;;;;19.30;8.35;;;;;;;;;;4978972;28;20258;-69
2023/02/20 03:43:50;;;;;;;17.90;7.22;;;;;;;;;;4973704;28;20072;-68
2023/02/20 03:46:19;;;;;;;15.85;7.45;;;;;;;;;;4974324;28;20109;-68
2023/02/20 03:49:08;;;;;;;18.88;8.13;;;;;;;;;;4980526;28;20029;-70
2023/02/20 03:51:33;;;;;;;27.52;8.20;;;;;;;;;;4965799;28;20035;-70
2023/02/20 03:53:58;;;;;;;19.73;7.95;;;;;;;;;;4962326;28;20026;-70
2023/02/20 03:56:51;;;;;;;21.80;8.40;;;;;;;;;;4971331;28;20035;-69
2023/02/20 03:59:55;;;;;;;19.10;8.48;;;;;;;;;;4972518;28;20039;-68
2023/02/20 04:02:24;;;;;;;16.85;6.07;;;;;;;;;;4889725;29;20510;-68
2023/02/20 04:04:51;;;;;;;16.73;6.53;;;;;;;;;;4903021;29;20098;-68
2023/02/20 04:07:19;;;;;;;21.85;7.00;;;;;;;;;;4933222;28;20030;-68
2023/02/20 04:09:46;;;;;;;16.42;6.25;;;;;;;;;;4975435;28;20023;-69
2023/02/20 04:12:11;;;;;;;21.15;7.28;;;;;;;;;;4970425;28;20026;-68
2023/02/20 04:14:37;;;;;;;17.90;7.68;;;;;;;;;;4980077;28;20379;-70
2023/02/20 04:17:05;;;;;;;17.58;7.82;;;;;;;;;;4978177;28;20044;-68
2023/02/20 04:19:31;;;;;;;16.10;7.05;;;;;;;;;;4979989;28;20032;-69
2023/02/20 04:22:01;;;;;;;22.38;8.05;;;;;;;;;;4978240;28;20034;-68
2023/02/20 04:24:30;;;;;;;18.05;8.13;;;;;;;;;;4979550;28;20034;-69
2023/02/20 04:26:55;;;;;;;18.63;7.50;;;;;;;;;;4971610;28;20027;-69
2023/02/20 04:29:21;;;;;;;18.13;7.68;;;;;;;;;;4977879;28;20492;-68
2023/02/20 04:31:46;;;;;;;21.83;8.25;;;;;;;;;;4979692;28;20029;-68
2023/02/20 04:34:11;;;;;;;12.50;6.50;;;;;;;;;;4975407;28;20035;-68
2023/02/20 04:36:36;;;;;;;16.67;8.02;;;;;;;;;;4979353;28;20030;-69
2023/02/20 04:39:02;;;;;;;12.43;4.82;;;;;;;;;;4973123;28;20038;-69
2023/02/20 04:41:27;;;;;;;10.70;5.15;;;;;;;;;;4978596;28;20719;-68
2023/02/20 04:44:30;;;;;;;19.47;8.10;;;;;;;;;;4978604;28;20033;-69
2023/02/20 04:46:40;;;;;;;26.83;6.53;;;;;;;;;;4974408;28;20349;-69
2023/02/20 04:49:05;;;;;;;17.27;7.25;;;;;;;;;;4975613;28;20483;-68
2023/02/20 04:51:30;;;;;;;7.45;3.05;;;;;;;;;;4980159;28;20022;-69
2023/02/20 04:53:56;;;;;;;14.80;6.22;;;;;;;;;;4972244;28;20081;-68
2023/02/20 04:56:21;;;;;;;17.33;8.35;;;;;;;;;;4976981;28;20026;-68
2023/02/20 04:58:48;;;;;;;17.60;6.65;;;;;;;;;;4977763;28;20053;-69
2023/02/20 05:01:13;;;;;;;20.77;7.75;;;;;;;;;;4977192;28;20443;-69
2023/02/20 05:03:38;;;;;;;20.03;6.17;;;;;;;;;;4980172;28;20018;-69
2023/02/20 05:06:03;;;;;;;18.37;8.03;;;;;;;;;;4973302;28;20271;-69
2023/02/20 05:08:30;;;;;;;23.27;7.95;;;;;;;;;;4974413;28;20821;-69
2023/02/20 05:10:55;;;;;;;18.25;7.45;;;;;;;;;;4973283;28;20018;-68
2023/02/20 05:13:20;;;;;;;14.20;6.57;;;;;;;;;;4975421;28;20027;-68
2023/02/20 05:15:45;;;;;;;19.70;7.00;;;;;;;;;;4979299;28;20750;-69
2023/02/20 05:18:10;;;;;;;19.50;7.67;;;;;;;;;;4975667;28;20404;-68
2023/02/20 05:23:19;;;;;;;15.48;6.95;;;;;;;;;;4975620;28;20026;-69
2023/02/20 05:25:45;;;;;;;31.95;6.55;;;;;;;;;;4977947;28;20019;-70
2023/02/20 05:28:10;;;;;;;15.03;5.20;;;;;;;;;;4972467;28;20727;-68
2023/02/20 05:30:35;;;;;;;19.57;7.63;;;;;;;;;;4980492;28;20246;-69
2023/02/20 05:33:00;;;;;;;7.78;4.07;;;;;;;;;;4979621;28;20967;-68
2023/02/20 05:35:25;;;;;;;18.15;7.47;;;;;;;;;;4982976;28;20479;-69
2023/02/20 05:37:51;;;;;;;23.10;8.02;;;;;;;;;;4973033;28;20026;-68
2023/02/20 05:40:16;;;;;;;23.65;7.65;;;;;;;;;;4957173;28;20023;-70
2023/02/20 05:42:41;;;;;;;13.80;5.07;;;;;;;;;;4979580;28;20054;-68
2023/02/20 05:45:07;;;;;;;17.77;7.35;;;;;;;;;;4975133;28;20101;-69
2023/02/20 05:47:35;;;;;;;14.52;6.65;;;;;;;;;;4979733;28;20487;-69
2023/02/20 05:50:00;;;;;;;18.98;8.65;;;;;;;;;;4974480;28;20089;-70
2023/02/20 05:52:25;;;;;;;18.13;7.15;;;;;;;;;;4973784;28;20606;-69
2023/02/20 05:54:50;;;;;;;19.40;6.32;;;;;;;;;;4978800;28;20022;-69
2023/02/20 05:57:16;;;;;;;16.73;7.72;;;;;;;;;;4974497;28;20027;-68
2023/02/20 05:59:41;;;;;;;24.00;7.82;;;;;;;;;;4979519;28;20101;-69
2023/02/20 06:02:06;;;;;;;25.23;9.37;;;;;;;;;;4976002;28;20106;-68
2023/02/20 06:04:31;;;;;;;23.48;8.77;;;;;;;;;;4977139;28;20270;-70
2023/02/20 06:06:57;;;;;;;24.50;8.70;;;;;;;;;;4974723;28;20699;-68
2023/02/20 06:09:22;;;;;;;18.70;5.40;;;;;;;;;;4974119;28;20026;-69
2023/02/20 06:11:52;;;;;;;17.00;7.53;;;;;;;;;;4972526;28;20022;-69
2023/02/20 06:14:18;;;;;;;12.20;4.90;;;;;;;;;;4977951;28;20077;-69
2023/02/20 06:16:44;;;;;;;23.95;8.75;;;;;;;;;;4979232;28;20069;-69
2023/02/20 06:19:09;;;;;;;24.17;8.60;;;;;;;;;;4974081;28;20022;-70
2023/02/20 06:21:34;;;;;;;20.02;8.82;;;;;;;;;;4974892;28;20030;-69
2023/02/20 06:24:00;;;;;;;16.90;6.82;;;;;;;;;;4975158;28;20059;-68
2023/02/20 06:26:25;;;;;;;19.10;8.25;;;;;;;;;;4964249;28;20019;-68
2023/02/20 06:28:52;;;;;;;24.25;9.27;;;;;;;;;;4973027;28;20026;-68
2023/02/20 06:31:24;;;;;;;17.83;7.95;;;;;;;;;;4971192;28;20100;-68
2023/02/20 06:33:50;;;;;;;19.60;7.25;;;;;;;;;;4974694;28;20051;-69
2023/02/20 06:36:19;;;;;;;14.48;7.25;;;;;;;;;;4974416;28;20022;-69
2023/02/20 06:38:44;;;;;;;23.60;9.40;;;;;;;;;;4977669;28;20023;-68
2023/02/20 06:41:10;;;;;;;22.50;8.05;;;;;;;;;;4980136;28;20313;-69
2023/02/20 06:43:35;;;;;;;19.40;8.30;;;;;;;;;;4977006;28;20033;-69
2023/02/20 06:46:00;;;;;;;20.97;8.73;;;;;;;;;;4979642;28;20337;-69
2023/02/20 06:48:25;;;;;;;17.60;7.85;;;;;;;;;;4961332;28;20804;-68
2023/02/20 06:50:54;;;;;;;26.65;9.32;;;;;;;;;;4977049;28;20026;-69
2023/02/20 06:53:19;;;;;;;19.33;7.45;;;;;;;;;;4978421;28;20017;-69
2023/02/20 06:55:44;;;;;;;16.60;6.85;;;;;;;;;;4975410;28;20018;-68
2023/02/20 06:58:09;;;;;;;22.33;8.07;;;;;;;;;;4974665;28;20368;-69
2023/02/20 07:00:34;;;;;;;18.37;8.73;;;;;;;;;;4981985;28;20320;-68
2023/02/20 07:02:59;;;;;;;22.27;8.50;;;;;;;;;;4979268;28;20901;-68
2023/02/20 07:05:25;;;;;;;20.77;7.45;;;;;;;;;;4970502;28;20270;-68
2023/02/20 07:07:50;;;;;;;23.80;8.93;;;;;;;;;;4974299;28;20062;-68
2023/02/20 07:10:15;;;;;;;23.92;8.57;;;;;;;;;;4969316;28;20277;-70
2023/02/20 07:12:40;;;;;;;19.85;7.85;;;;;;;;;;4969210;28;20085;-70
2023/02/20 07:15:06;;;;;;;20.57;8.60;;;;;;;;;;4976038;28;20027;-68
2023/02/20 07:17:31;;;;;;;26.02;8.63;;;;;;;;;;4971950;28;20717;-70
2023/02/20 07:19:58;;;;;;;21.97;8.73;;;;;;;;;;4967960;28;20031;-70
2023/02/20 07:22:23;;;;;;;23.50;9.55;;;;;;;;;;4967567;28;20290;-69
2023/02/20 07:24:51;;;;;;;25.57;9.30;;;;;;;;;;4967442;28;20037;-68
2023/02/20 07:27:17;;;;;;;24.58;9.48;;;;;;;;;;4967664;28;20754;-69
2023/02/20 07:29:46;;;;;;;16.02;8.48;;;;;;;;;;4968539;28;20050;-69
2023/02/20 07:32:12;;;;;;;29.42;9.30;;;;;;;;;;4966849;28;20033;-70
2023/02/20 07:34:37;;;;;;;22.40;9.15;;;;;;;;;;4972358;28;20543;-69
2023/02/20 07:37:02;;;;;;;20.83;9.30;;;;;;;;;;4970352;28;20050;-69
2023/02/20 07:39:27;;;;;;;27.38;9.27;;;;;;;;;;4955394;28;20263;-69
2023/02/20 07:41:52;;;;;;;30.80;9.63;;;;;;;;;;4970596;28;20384;-69
2023/02/20 07:44:18;;;;;;;20.38;9.63;;;;;;;;;;4971171;28;20018;-69
2023/02/20 07:46:43;;;;;;;25.98;10.02;;;;;;;;;;4970916;28;20026;-69
2023/02/20 07:49:08;;;;;;;19.10;9.45;;;;;;;;;;4972006;28;20026;-70
2023/02/20 07:51:33;;;;;;;27.33;10.15;;;;;;;;;;4971236;28;20039;-70
2023/02/20 07:53:59;;;;;;;31.15;10.68;;;;;;;;;;4970697;28;20081;-69
2023/02/20 07:56:24;;;;;;;21.70;8.98;;;;;;;;;;4970579;28;20062;-70
2023/02/20 07:58:49;;;;;;;25.80;9.77;;;;;;;;;;4967880;28;20027;-68
2023/02/20 08:01:15;;;;;;;28.52;9.98;;;;;;;;;;4970682;28;20043;-69
2023/02/20 08:03:40;;;;;;;20.73;7.93;;;;;;;;;;4971855;28;20026;-70
2023/02/20 08:06:05;;;;;;;22.58;8.75;;;;;;;;;;4971790;28;20437;-70
2023/02/20 08:08:31;;;;;;;22.80;9.13;;;;;;;;;;4969865;28;20018;-70
2023/02/20 08:10:56;;;;;;;22.88;8.77;;;;;;;;;;4969298;28;20044;-70
2023/02/20 08:13:22;;;;;;;27.55;9.77;;;;;;;;;;4968741;28;20045;-70
2023/02/20 08:15:47;;;;;;;16.33;8.13;;;;;;;;;;4970266;28;20659;-70
2023/02/20 08:18:12;;;;;;;23.08;9.73;;;;;;;;;;4972645;28;20109;-69
2023/02/20 08:20:38;;;;;;;18.90;10.65;;;;;;;;;;4971447;28;20082;-70
2023/02/20 08:23:04;;;;;;;18.52;9.38;;;;;;;;;;4972494;28;20022;-70
2023/02/20 08:25:31;;;;;;;26.15;12.30;;;;;;;;;;4967953;28;20026;-69
2023/02/20 08:27:56;;;;;;;22.95;9.85;;;;;;;;;;4970789;28;20023;-70
2023/02/20 08:30:23;;;;;;;26.42;12.73;;;;;;;;;;4968490;28;20034;-67
2023/02/20 08:32:52;;;;;;;27.05;11.43;;;;;;;;;;4969595;28;20535;-68
2023/02/20 08:35:17;;;;;;;28.67;11.27;;;;;;;;;;4969050;28;20031;-68
2023/02/20 08:37:43;;;;;;;33.72;12.93;;;;;;;;;;4968432;28;20069;-69
2023/02/20 08:40:08;;;;;;;25.05;12.55;;;;;;;;;;4970262;28;20022;-68
2023/02/20 08:42:34;;;;;;;25.83;11.30;;;;;;;;;;4966206;28;20491;-68
2023/02/20 08:44:59;;;;;;;22.08;10.88;;;;;;;;;;4965512;28;20054;-69
2023/02/20 08:47:24;;;;;;;30.35;14.73;;;;;;;;;;4972089;28;20018;-68
2023/02/20 08:49:50;;;;;;;23.17;12.32;;;;;;;;;;4971553;28;20469;-69
2023/02/20 08:52:15;;;;;;;28.03;12.27;;;;;;;;;;4969859;28;20023;-68
2023/02/20 08:54:43;;;;;;;27.10;12.67;;;;;;;;;;4968264;28;20269;-68
2023/02/20 08:57:08;;;;;;;23.75;12.65;;;;;;;;;;4969688;28;20289;-68
2023/02/20 08:59:33;;;;;;;34.03;13.80;;;;;;;;;;4968718;28;20022;-68
2023/02/20 09:01:59;;;;;;;22.17;13.27;;;;;;;;;;4971547;28;20687;-68
2023/02/20 09:04:24;;;;;;;24.52;12.63;;;;;;;;;;4969051;28;20041;-68
2023/02/20 09:06:49;;;;;;;30.10;12.68;;;;;;;;;;4972246;28;20030;-68
2023/02/20 09:09:14;;;;;;;33.47;13.00;;;;;;;;;;4969346;28;20067;-68
2023/02/20 09:11:39;;;;;;;23.95;11.80;;;;;;;;;;4971450;28;20331;-68
2023/02/20 09:14:05;;;;;;;27.05;12.05;;;;;;;;;;4968804;28;20495;-68
2023/02/20 09:16:30;;;;;;;28.77;13.83;;;;;;;;;;4969356;28;20070;-68
2023/02/20 09:18:55;;;;;;;25.10;11.88;;;;;;;;;;4969691;28;20274;-68
2023/02/20 09:21:21;;;;;;;27.40;11.57;;;;;;;;;;4971558;28;20081;-68
2023/02/20 09:23:46;;;;;;;32.55;12.90;;;;;;;;;;4969154;28;20110;-68
2023/02/20 09:26:11;;;;;;;28.58;12.73;;;;;;;;;;4965169;28;20102;-68
2023/02/20 09:28:36;;;;;;;26.17;11.48;;;;;;;;;;4971291;28;20037;-68
2023/02/20 09:31:02;;;;;;;27.15;14.05;;;;;;;;;;4972771;28;20014;-68
2023/02/20 09:33:27;;;;;;;28.65;15.07;;;;;;;;;;4970822;28;20027;-69
2023/02/20 09:35:53;;;;;;;32.85;15.77;;;;;;;;;;4968236;28;20494;-68
2023/02/20 09:38:19;;;;;;;40.85;17.55;;;;;;;;;;4970440;28;20102;-68
2023/02/20 09:40:46;;;;;;;35.67;15.32;;;;;;;;;;4971170;28;20094;-68
2023/02/20 09:43:32;;;;;;;33.63;14.60;;;;;;;;;;4969704;28;20058;-69
2023/02/20 09:46:05;;;;;;;35.10;15.02;;;;;;;;;;4926676;28;20043;-68
2023/02/20 09:48:48;;;;;;;32.65;16.33;;;;;;;;;;4967831;28;20045;-69
2023/02/20 09:51:20;;;;;;;37.30;15.70;;;;;;;;;;4967226;28;20061;-68
2023/02/20 09:53:48;;;;;;;36.75;15.82;;;;;;;;;;4965795;28;20022;-68
2023/02/20 09:56:17;;;;;;;30.55;15.23;;;;;;;;;;4967450;28;20139;-69
2023/02/20 09:58:54;;;;;;;23.35;12.82;;;;;;;;;;4969667;28;20392;-68
2023/02/20 10:01:20;;;;;;;31.08;17.05;;;;;;;;;;4972707;28;20023;-69
2023/02/20 10:04:04;;;;;;;34.17;14.23;;;;;;;;;;4973339;28;20036;-68
2023/02/20 10:06:31;;;;;;;24.88;13.40;;;;;;;;;;4973871;28;20074;-68
2023/02/20 10:08:56;;;;;;;27.83;13.23;;;;;;;;;;4971718;28;20030;-68
2023/02/20 10:11:21;;;;;;;34.35;13.07;;;;;;;;;;4973589;28;20077;-68
2023/02/20 10:13:53;;;;;;;17.98;9.93;;;;;;;;;;4974169;28;20137;-68
2023/02/20 10:16:31;;;;;;;23.48;10.68;;;;;;;;;;4974733;28;20292;-68
2023/02/20 10:19:16;;;;;;;25.20;11.50;;;;;;;;;;4972176;28;20037;-68
2023/02/20 10:21:50;;;;;;;26.95;12.90;;;;;;;;;;4941129;28;20070;-68
2023/02/20 10:24:30;;;;;;;26.75;12.32;;;;;;;;;;4968748;28;20074;-69
2023/02/20 10:26:59;;;;;;;37.40;13.53;;;;;;;;;;4972513;28;20023;-68
2023/02/20 10:29:29;;;;;;;29.33;12.88;;;;;;;;;;4978224;28;20019;-69
2023/02/20 10:32:08;;;;;;;30.65;13.73;;;;;;;;;;4968181;28;20227;-70
2023/02/20 10:34:36;;;;;;;30.25;12.93;;;;;;;;;;4973685;28;20041;-68
2023/02/20 10:37:13;;;;;;;26.75;13.45;;;;;;;;;;4972933;28;20084;-69
2023/02/20 10:39:39;;;;;;;26.10;13.63;;;;;;;;;;4971968;28;20668;-68
2023/02/20 10:42:13;;;;;;;41.20;13.85;;;;;;;;;;4972709;28;20492;-68
2023/02/20 10:44:41;;;;;;;26.33;14.25;;;;;;;;;;4974346;28;20480;-68
2023/02/20 10:47:18;;;;;;;29.58;14.00;;;;;;;;;;4969507;28;20101;-68
2023/02/20 10:49:50;;;;;;;32.78;13.85;;;;;;;;;;4972247;28;20484;-69
2023/02/20 10:52:19;;;;;;;29.42;12.90;;;;;;;;;;4969896;28;20030;-68
2023/02/20 10:54:46;;;;;;;22.55;13.07;;;;;;;;;;4973776;28;20027;-68
2023/02/20 10:57:27;;;;;;;32.42;14.50;;;;;;;;;;4971484;28;20027;-68
2023/02/20 11:00:01;;;;;;;42.05;16.98;;;;;;;;;;4970016;28;20022;-68
2023/02/20 11:02:29;;;;;;;28.42;14.57;;;;;;;;;;4969491;28;20098;-68
2023/02/20 11:04:57;;;;;;;30.48;17.77;;;;;;;;;;4970763;28;20019;-68
2023/02/20 11:07:22;;;;;;;31.65;18.55;;;;;;;;;;4970784;28;20015;-68
2023/02/20 11:09:48;;;;;;;29.85;15.75;;;;;;;;;;4974358;28;20015;-68
2023/02/20 11:12:31;;;;;;;41.20;19.17;;;;;;;;;;4970744;28;20062;-68
2023/02/20 11:14:58;;;;;;;27.77;13.70;;;;;;;;;;4972149;28;20098;-68
2023/02/20 11:17:25;;;;;;;30.05;16.05;;;;;;;;;;4970364;28;20023;-68
2023/02/20 11:19:55;;;;;;;37.08;13.30;;;;;;;;;;4973902;28;20375;-68
2023/02/20 11:22:38;;;;;;;27.03;14.63;;;;;;;;;;4971544;28;20114;-68
2023/02/20 11:25:18;;;;;;;28.55;13.88;;;;;;;;;;4970992;28;20025;-68
2023/02/20 11:27:45;;;;;;;30.60;15.00;;;;;;;;;;4972348;28;20021;-68
2023/02/20 11:30:25;;;;;;;37.72;15.00;;;;;;;;;;4968643;28;20031;-68
2023/02/20 11:32:58;;;;;;;35.53;19.33;;;;;;;;;;4971933;28;20062;-70
2023/02/20 11:35:28;;;;;;;26.83;17.05;;;;;;;;;;4971939;28;20022;-68
2023/02/20 11:38:17;;;;;;;36.47;15.75;;;;;;;;;;4972242;28;20046;-68
2023/02/20 11:40:43;;;;;;;35.63;15.82;;;;;;;;;;4964037;28;20125;-68
2023/02/20 11:43:12;;;;;;;37.10;15.02;;;;;;;;;;4973064;28;20054;-68
2023/02/20 11:45:37;;;;;;;35.15;15.93;;;;;;;;;;4971291;28;20479;-68
2023/02/20 11:48:05;;;;;;;21.52;10.45;;;;;;;;;;4972680;28;20081;-68
2023/02/20 11:50:37;;;;;;;20.05;7.63;;;;;;;;;;4967497;28;20392;-68
2023/02/20 11:53:04;;;;;;;31.40;12.63;;;;;;;;;;4972798;28;20388;-68
2023/02/20 11:55:29;;;;;;;22.25;11.75;;;;;;;;;;4974636;28;20022;-68
2023/02/20 11:57:55;;;;;;;26.30;11.40;;;;;;;;;;4971051;28;20029;-68
2023/02/20 12:00:21;;;;;;;24.58;10.65;;;;;;;;;;4972571;28;20641;-68
2023/02/20 12:02:48;;;;;;;25.45;11.20;;;;;;;;;;4971068;28;20029;-68
2023/02/20 12:05:14;;;;;;;22.95;12.45;;;;;;;;;;4967768;28;20026;-68
2023/02/20 12:07:42;;;;;;;25.23;14.07;;;;;;;;;;4973561;28;20059;-68
2023/02/20 12:10:14;;;;;;;35.00;17.08;;;;;;;;;;4971504;28;20492;-68
2023/02/20 12:12:39;;;;;;;28.45;13.45;;;;;;;;;;4968299;28;20030;-68
2023/02/20 12:15:11;;;;;;;29.88;15.18;;;;;;;;;;4971691;28;20539;-68
2023/02/20 12:17:41;;;;;;;29.42;12.32;;;;;;;;;;4971156;28;20037;-68
2023/02/20 12:20:09;;;;;;;27.67;13.88;;;;;;;;;;4971543;28;20430;-68
2023/02/20 12:22:36;;;;;;;33.13;15.35;;;;;;;;;;4972834;28;20034;-68
2023/02/20 12:25:11;;;;;;;25.20;14.25;;;;;;;;;;4972358;28;20018;-69
2023/02/20 12:27:42;;;;;;;28.52;12.73;;;;;;;;;;4975573;28;20568;-68
2023/02/20 12:30:26;;;;;;;42.78;15.63;;;;;;;;;;4967494;28;20101;-68
2023/02/20 12:33:03;;;;;;;24.48;12.60;;;;;;;;;;4972440;28;20025;-68
2023/02/20 12:35:28;;;;;;;31.33;13.45;;;;;;;;;;4970561;28;20030;-69
2023/02/20 12:38:05;;;;;;;32.22;15.90;;;;;;;;;;4972583;28;20034;-68
2023/02/20 12:40:39;;;;;;;28.77;14.77;;;;;;;;;;4969638;28;20039;-68
2023/02/20 12:43:21;;;;;;;32.10;16.50;;;;;;;;;;4973884;28;20073;-68
2023/02/20 12:45:50;;;;;;;28.83;15.80;;;;;;;;;;4968617;28;20027;-69
2023/02/20 12:48:26;;;;;;;28.90;16.58;;;;;;;;;;4971900;28;20023;-68
2023/02/20 12:51:03;;;;;;;28.77;16.88;;;;;;;;;;4969010;28;20019;-69
2023/02/20 12:53:35;;;;;;;31.13;15.57;;;;;;;;;;4971788;28;20027;-69
2023/02/20 12:56:09;;;;;;;32.50;13.95;;;;;;;;;;4968382;28;20035;-69
2023/02/20 12:58:35;;;;;;;29.05;18.45;;;;;;;;;;4971940;28;20031;-69
2023/02/20 13:01:01;;;;;;;31.88;13.48;;;;;;;;;;4969802;28;20121;-69
2023/02/20 13:03:38;;;;;;;32.05;13.73;;;;;;;;;;4971655;28;20019;-68
2023/02/20 13:06:03;;;;;;;28.58;15.20;;;;;;;;;;4971770;28;20058;-68
2023/02/20 13:08:31;;;;;;;32.08;13.88;;;;;;;;;;4971808;28;20061;-68
2023/02/20 13:10:58;;;;;;;30.33;16.60;;;;;;;;;;4967846;28;20113;-68
2023/02/20 13:13:30;;;;;;;37.78;15.77;;;;;;;;;;4972294;28;20015;-69
2023/02/20 13:16:00;;;;;;;33.97;16.13;;;;;;;;;;4968131;28;20046;-68
2023/02/20 13:18:44;;;;;;;31.65;17.40;;;;;;;;;;4970273;28;20063;-69
2023/02/20 13:21:11;;;;;;;32.42;16.23;;;;;;;;;;4968845;28;20039;-69
2023/02/20 13:23:37;;;;;;;38.65;16.27;;;;;;;;;;4975393;28;20034;-69
2023/02/20 13:26:22;;;;;;;32.70;15.85;;;;;;;;;;4970435;28;20030;-69
2023/02/20 13:28:47;;;;;;;38.92;16.58;;;;;;;;;;4969206;28;20023;-69
2023/02/20 13:31:18;;;;;;;37.15;15.70;;;;;;;;;;4971167;28;20534;-69
2023/02/20 13:33:51;;;;;;;29.85;16.23;;;;;;;;;;4971164;28;20490;-69
2023/02/20 13:36:23;;;;;;;33.95;15.73;;;;;;;;;;4974488;28;20407;-70
2023/02/20 13:39:07;;;;;;;28.85;13.30;;;;;;;;;;4976424;28;20058;-69
2023/02/20 13:41:51;;;;;;;39.05;17.65;;;;;;;;;;4971581;28;20074;-69
2023/02/20 13:44:42;;;;;;;31.95;15.55;;;;;;;;;;4971842;28;20070;-69
2023/02/20 13:47:10;;;;;;;34.70;16.27;;;;;;;;;;4970223;28;20038;-69
2023/02/20 13:49:48;;;;;;;37.83;20.13;;;;;;;;;;4977852;28;20476;-69
2023/02/20 13:52:28;;;;;;;38.83;14.88;;;;;;;;;;4973175;28;20019;-69
2023/02/20 13:54:53;;;;;;;;;;;;;;;;;;4971283;28;20019;-69
2023/02/20 13:57:18;;;;;;;27.98;13.05;;;;;;;;;;4973146;28;19910;-69
2023/02/20 13:59:46;;;;;;;28.10;12.65;;;;;;;;;;4977825;28;20097;-69
2023/02/20 14:02:11;;;;;;;29.35;12.52;;;;;;;;;;4976098;28;20464;-69
2023/02/20 14:04:37;;;;;;;30.20;14.07;;;;;;;;;;4975109;28;20041;-69
2023/02/20 14:07:02;;;;;;;37.15;15.07;;;;;;;;;;4972048;28;20312;-69
2023/02/20 14:09:31;;;;;;;26.25;12.68;;;;;;;;;;4977070;28;20027;-69
2023/02/20 14:12:16;;;;;;;31.92;14.75;;;;;;;;;;4971364;28;20468;-69
2023/02/20 14:14:43;;;;;;;35.50;15.70;;;;;;;;;;4978788;28;20089;-69
2023/02/20 14:17:14;;;;;;;38.55;16.30;;;;;;;;;;4974912;28;20054;-69
2023/02/20 14:19:41;;;;;;;34.88;14.32;;;;;;;;;;4971984;28;20057;-69
2023/02/20 14:22:20;;;;;;;30.13;12.73;;;;;;;;;;4973004;28;20567;-69
2023/02/20 14:24:45;;;;;;;31.58;15.27;;;;;;;;;;4971319;28;20031;-70
2023/02/20 14:27:31;;;;;;;34.85;15.15;;;;;;;;;;4969291;28;20039;-70
2023/02/20 14:30:03;;;;;;;28.48;16.77;;;;;;;;;;4969317;28;20065;-69
2023/02/20 14:32:29;;;;;;;26.60;16.75;;;;;;;;;;4970398;28;20023;-70
2023/02/20 14:35:01;;;;;;;22.42;11.80;;;;;;;;;;4975876;28;20026;-70
2023/02/20 14:37:36;;;;;;;23.42;9.73;;;;;;;;;;4974768;28;20042;-69
2023/02/20 14:40:05;;;;;;;24.88;9.52;;;;;;;;;;4973825;28;20022;-69
2023/02/20 14:42:30;;;;;;;25.60;10.38;;;;;;;;;;4970466;28;20077;-69
2023/02/20 14:45:06;;;;;;;22.58;11.63;;;;;;;;;;4977458;28;20019;-69